<?xml version="1.0" encoding="UTF-8"?>
<gpx creator="Wikiloc - https://www.wikiloc.com" version="1.1" xmlns="http://www.topografix.com/GPX/1/1" xmlns:xsi="http://www.w3.org/2001/XMLSchema-instance" xsi:schemaLocation="http://www.topografix.com/GPX/1/1 http://www.topografix.com/GPX/1/1/gpx.xsd">
  <metadata>
    <name>Wikiloc - Averbode</name>
    <link href="https://www.wikiloc.com/horseback-riding-trails/averbode-56720548">
      <text>Averbode on Wikiloc</text>
    </link>
    <time>2020-09-13T16:49:26Z</time>
  </metadata>
  <trk>
    <name>Averbode</name>
    <cmt></cmt>
    <desc></desc>
    <trkseg>
      <trkpt lat="51.034243" lon="5.036112">
        <ele>75.265</ele>
        <time>2020-09-13T11:12:12Z</time>
      </trkpt>
      <trkpt lat="51.034311" lon="5.036195">
        <ele>75.268</ele>
        <time>2020-09-13T11:36:39Z</time>
      </trkpt>
      <trkpt lat="51.034081" lon="5.036311">
        <ele>75.214</ele>
        <time>2020-09-13T11:37:12Z</time>
      </trkpt>
      <trkpt lat="51.034072" lon="5.036066">
        <ele>75.508</ele>
        <time>2020-09-13T11:38:00Z</time>
      </trkpt>
      <trkpt lat="51.033718" lon="5.036043">
        <ele>75.631</ele>
        <time>2020-09-13T11:38:32Z</time>
      </trkpt>
      <trkpt lat="51.032431" lon="5.036494">
        <ele>72.372</ele>
        <time>2020-09-13T11:40:33Z</time>
      </trkpt>
      <trkpt lat="51.030700" lon="5.036845">
        <ele>72.643</ele>
        <time>2020-09-13T11:43:29Z</time>
      </trkpt>
      <trkpt lat="51.030004" lon="5.034342">
        <ele>70.468</ele>
        <time>2020-09-13T11:45:55Z</time>
      </trkpt>
      <trkpt lat="51.029828" lon="5.031231">
        <ele>60.446</ele>
        <time>2020-09-13T11:48:41Z</time>
      </trkpt>
      <trkpt lat="51.029910" lon="5.030363">
        <ele>58.771</ele>
        <time>2020-09-13T11:49:36Z</time>
      </trkpt>
      <trkpt lat="51.029431" lon="5.028132">
        <ele>76.030</ele>
        <time>2020-09-13T11:51:45Z</time>
      </trkpt>
      <trkpt lat="51.029467" lon="5.027253">
        <ele>76.064</ele>
        <time>2020-09-13T11:52:30Z</time>
      </trkpt>
      <trkpt lat="51.029786" lon="5.027154">
        <ele>72.018</ele>
        <time>2020-09-13T11:53:03Z</time>
      </trkpt>
      <trkpt lat="51.030371" lon="5.027275">
        <ele>77.198</ele>
        <time>2020-09-13T11:54:05Z</time>
      </trkpt>
      <trkpt lat="51.032387" lon="5.027292">
        <ele>77.517</ele>
        <time>2020-09-13T11:57:07Z</time>
      </trkpt>
      <trkpt lat="51.032783" lon="5.027104">
        <ele>78.308</ele>
        <time>2020-09-13T11:57:31Z</time>
      </trkpt>
      <trkpt lat="51.034039" lon="5.027250">
        <ele>84.596</ele>
        <time>2020-09-13T11:58:56Z</time>
      </trkpt>
      <trkpt lat="51.034999" lon="5.027846">
        <ele>80.227</ele>
        <time>2020-09-13T12:00:19Z</time>
      </trkpt>
      <trkpt lat="51.036098" lon="5.027950">
        <ele>78.548</ele>
        <time>2020-09-13T12:01:57Z</time>
      </trkpt>
      <trkpt lat="51.036690" lon="5.027625">
        <ele>78.393</ele>
        <time>2020-09-13T12:02:53Z</time>
      </trkpt>
      <trkpt lat="51.037958" lon="5.026305">
        <ele>76.231</ele>
        <time>2020-09-13T12:05:19Z</time>
      </trkpt>
      <trkpt lat="51.038430" lon="5.026076">
        <ele>80.476</ele>
        <time>2020-09-13T12:06:10Z</time>
      </trkpt>
      <trkpt lat="51.040329" lon="5.026715">
        <ele>75.095</ele>
        <time>2020-09-13T12:09:04Z</time>
      </trkpt>
      <trkpt lat="51.040576" lon="5.026664">
        <ele>74.799</ele>
        <time>2020-09-13T12:09:26Z</time>
      </trkpt>
      <trkpt lat="51.041242" lon="5.026953">
        <ele>75.436</ele>
        <time>2020-09-13T12:10:28Z</time>
      </trkpt>
      <trkpt lat="51.042912" lon="5.027252">
        <ele>78.917</ele>
        <time>2020-09-13T12:13:00Z</time>
      </trkpt>
      <trkpt lat="51.043383" lon="5.026924">
        <ele>75.818</ele>
        <time>2020-09-13T12:13:50Z</time>
      </trkpt>
      <trkpt lat="51.043506" lon="5.026986">
        <ele>72.008</ele>
        <time>2020-09-13T12:15:25Z</time>
      </trkpt>
      <trkpt lat="51.044308" lon="5.026029">
        <ele>70.668</ele>
        <time>2020-09-13T12:16:57Z</time>
      </trkpt>
      <trkpt lat="51.045144" lon="5.025699">
        <ele>72.879</ele>
        <time>2020-09-13T12:18:21Z</time>
      </trkpt>
      <trkpt lat="51.045145" lon="5.025386">
        <ele>69.670</ele>
        <time>2020-09-13T12:19:39Z</time>
      </trkpt>
      <trkpt lat="51.045496" lon="5.025651">
        <ele>69.315</ele>
        <time>2020-09-13T12:20:27Z</time>
      </trkpt>
      <trkpt lat="51.046607" lon="5.024478">
        <ele>78.213</ele>
        <time>2020-09-13T12:22:35Z</time>
      </trkpt>
      <trkpt lat="51.046794" lon="5.024578">
        <ele>76.618</ele>
        <time>2020-09-13T12:22:56Z</time>
      </trkpt>
      <trkpt lat="51.046767" lon="5.024701">
        <ele>75.477</ele>
        <time>2020-09-13T12:23:10Z</time>
      </trkpt>
      <trkpt lat="51.046622" lon="5.024738">
        <ele>75.321</ele>
        <time>2020-09-13T12:24:16Z</time>
      </trkpt>
      <trkpt lat="51.046270" lon="5.024297">
        <ele>74.055</ele>
        <time>2020-09-13T12:24:54Z</time>
      </trkpt>
      <trkpt lat="51.045386" lon="5.022061">
        <ele>74.207</ele>
        <time>2020-09-13T12:27:11Z</time>
      </trkpt>
      <trkpt lat="51.045286" lon="5.021339">
        <ele>74.317</ele>
        <time>2020-09-13T12:27:50Z</time>
      </trkpt>
      <trkpt lat="51.045387" lon="5.021077">
        <ele>72.208</ele>
        <time>2020-09-13T12:28:06Z</time>
      </trkpt>
      <trkpt lat="51.045030" lon="5.019276">
        <ele>75.410</ele>
        <time>2020-09-13T12:29:44Z</time>
      </trkpt>
      <trkpt lat="51.043532" lon="5.014018">
        <ele>78.321</ele>
        <time>2020-09-13T12:34:52Z</time>
      </trkpt>
      <trkpt lat="51.043167" lon="5.013067">
        <ele>75.192</ele>
        <time>2020-09-13T12:36:32Z</time>
      </trkpt>
      <trkpt lat="51.043064" lon="5.013290">
        <ele>72.617</ele>
        <time>2020-09-13T12:37:55Z</time>
      </trkpt>
      <trkpt lat="51.043163" lon="5.013093">
        <ele>73.025</ele>
        <time>2020-09-13T12:39:31Z</time>
      </trkpt>
      <trkpt lat="51.041411" lon="5.010016">
        <ele>68.390</ele>
        <time>2020-09-13T12:42:55Z</time>
      </trkpt>
      <trkpt lat="51.041044" lon="5.009140">
        <ele>71.229</ele>
        <time>2020-09-13T12:43:48Z</time>
      </trkpt>
      <trkpt lat="51.041228" lon="5.008919">
        <ele>72.343</ele>
        <time>2020-09-13T12:44:22Z</time>
      </trkpt>
      <trkpt lat="51.042021" lon="5.008579">
        <ele>72.762</ele>
        <time>2020-09-13T12:45:09Z</time>
      </trkpt>
      <trkpt lat="51.044934" lon="5.007685">
        <ele>70.283</ele>
        <time>2020-09-13T12:46:47Z</time>
      </trkpt>
      <trkpt lat="51.045498" lon="5.007626">
        <ele>70.211</ele>
        <time>2020-09-13T12:47:10Z</time>
      </trkpt>
      <trkpt lat="51.046211" lon="5.007291">
        <ele>72.208</ele>
        <time>2020-09-13T12:48:12Z</time>
      </trkpt>
      <trkpt lat="51.047400" lon="5.006471">
        <ele>81.681</ele>
        <time>2020-09-13T12:48:54Z</time>
      </trkpt>
      <trkpt lat="51.048753" lon="5.005802">
        <ele>76.812</ele>
        <time>2020-09-13T12:50:20Z</time>
      </trkpt>
      <trkpt lat="51.049005" lon="5.005412">
        <ele>75.173</ele>
        <time>2020-09-13T12:50:32Z</time>
      </trkpt>
      <trkpt lat="51.049866" lon="5.004808">
        <ele>69.888</ele>
        <time>2020-09-13T12:51:08Z</time>
      </trkpt>
      <trkpt lat="51.050515" lon="5.004571">
        <ele>68.776</ele>
        <time>2020-09-13T12:51:54Z</time>
      </trkpt>
      <trkpt lat="51.051040" lon="5.003802">
        <ele>68.411</ele>
        <time>2020-09-13T12:52:46Z</time>
      </trkpt>
      <trkpt lat="51.050058" lon="5.001615">
        <ele>66.020</ele>
        <time>2020-09-13T12:55:19Z</time>
      </trkpt>
      <trkpt lat="51.049236" lon="5.000260">
        <ele>67.314</ele>
        <time>2020-09-13T12:56:15Z</time>
      </trkpt>
      <trkpt lat="51.047972" lon="4.997392">
        <ele>69.531</ele>
        <time>2020-09-13T12:59:19Z</time>
      </trkpt>
      <trkpt lat="51.047136" lon="4.996200">
        <ele>75.861</ele>
        <time>2020-09-13T12:59:43Z</time>
      </trkpt>
      <trkpt lat="51.043591" lon="4.988763">
        <ele>70.507</ele>
        <time>2020-09-13T13:02:59Z</time>
      </trkpt>
      <trkpt lat="51.043960" lon="4.985165">
        <ele>65.008</ele>
        <time>2020-09-13T13:06:15Z</time>
      </trkpt>
      <trkpt lat="51.043617" lon="4.982088">
        <ele>74.828</ele>
        <time>2020-09-13T13:08:05Z</time>
      </trkpt>
      <trkpt lat="51.043849" lon="4.981909">
        <ele>75.999</ele>
        <time>2020-09-13T13:08:23Z</time>
      </trkpt>
      <trkpt lat="51.044421" lon="4.981899">
        <ele>76.640</ele>
        <time>2020-09-13T13:08:43Z</time>
      </trkpt>
      <trkpt lat="51.046381" lon="4.982175">
        <ele>70.395</ele>
        <time>2020-09-13T13:09:26Z</time>
      </trkpt>
      <trkpt lat="51.046820" lon="4.982471">
        <ele>69.143</ele>
        <time>2020-09-13T13:09:58Z</time>
      </trkpt>
      <trkpt lat="51.047135" lon="4.982357">
        <ele>64.698</ele>
        <time>2020-09-13T13:12:18Z</time>
      </trkpt>
      <trkpt lat="51.047434" lon="4.982584">
        <ele>66.657</ele>
        <time>2020-09-13T13:13:27Z</time>
      </trkpt>
      <trkpt lat="51.047500" lon="4.982429">
        <ele>63.731</ele>
        <time>2020-09-13T13:14:21Z</time>
      </trkpt>
      <trkpt lat="51.047442" lon="4.982636">
        <ele>61.865</ele>
        <time>2020-09-13T13:14:45Z</time>
      </trkpt>
      <trkpt lat="51.047213" lon="4.982470">
        <ele>67.068</ele>
        <time>2020-09-13T13:16:33Z</time>
      </trkpt>
      <trkpt lat="51.046814" lon="4.982636">
        <ele>66.914</ele>
        <time>2020-09-13T13:17:14Z</time>
      </trkpt>
      <trkpt lat="51.045651" lon="4.982282">
        <ele>70.908</ele>
        <time>2020-09-13T13:18:53Z</time>
      </trkpt>
      <trkpt lat="51.044003" lon="4.982222">
        <ele>78.561</ele>
        <time>2020-09-13T13:21:02Z</time>
      </trkpt>
      <trkpt lat="51.043470" lon="4.981932">
        <ele>75.992</ele>
        <time>2020-09-13T13:21:35Z</time>
      </trkpt>
      <trkpt lat="51.042398" lon="4.981681">
        <ele>70.863</ele>
        <time>2020-09-13T13:21:59Z</time>
      </trkpt>
      <trkpt lat="51.041421" lon="4.981639">
        <ele>67.928</ele>
        <time>2020-09-13T13:22:27Z</time>
      </trkpt>
      <trkpt lat="51.040722" lon="4.979237">
        <ele>77.166</ele>
        <time>2020-09-13T13:23:12Z</time>
      </trkpt>
      <trkpt lat="51.039161" lon="4.971801">
        <ele>74.531</ele>
        <time>2020-09-13T13:28:03Z</time>
      </trkpt>
      <trkpt lat="51.038772" lon="4.972139">
        <ele>76.430</ele>
        <time>2020-09-13T13:28:58Z</time>
      </trkpt>
      <trkpt lat="51.038219" lon="4.972165">
        <ele>77.774</ele>
        <time>2020-09-13T13:29:52Z</time>
      </trkpt>
      <trkpt lat="51.037671" lon="4.972435">
        <ele>76.299</ele>
        <time>2020-09-13T13:30:52Z</time>
      </trkpt>
      <trkpt lat="51.037176" lon="4.972203">
        <ele>77.107</ele>
        <time>2020-09-13T13:32:13Z</time>
      </trkpt>
      <trkpt lat="51.037109" lon="4.972557">
        <ele>79.327</ele>
        <time>2020-09-13T13:33:10Z</time>
      </trkpt>
      <trkpt lat="51.037010" lon="4.972171">
        <ele>79.308</ele>
        <time>2020-09-13T13:33:37Z</time>
      </trkpt>
      <trkpt lat="51.037041" lon="4.972339">
        <ele>78.234</ele>
        <time>2020-09-13T13:34:18Z</time>
      </trkpt>
      <trkpt lat="51.036883" lon="4.972224">
        <ele>79.165</ele>
        <time>2020-09-13T13:34:45Z</time>
      </trkpt>
      <trkpt lat="51.036760" lon="4.972300">
        <ele>78.556</ele>
        <time>2020-09-13T13:35:03Z</time>
      </trkpt>
      <trkpt lat="51.036827" lon="4.972235">
        <ele>78.081</ele>
        <time>2020-09-13T13:36:35Z</time>
      </trkpt>
      <trkpt lat="51.036843" lon="4.972364">
        <ele>76.379</ele>
        <time>2020-09-13T13:38:26Z</time>
      </trkpt>
      <trkpt lat="51.036997" lon="4.971770">
        <ele>73.944</ele>
        <time>2020-09-13T13:43:52Z</time>
      </trkpt>
      <trkpt lat="51.036796" lon="4.972230">
        <ele>72.043</ele>
        <time>2020-09-13T13:53:19Z</time>
      </trkpt>
      <trkpt lat="51.036801" lon="4.971984">
        <ele>72.247</ele>
        <time>2020-09-13T13:59:07Z</time>
      </trkpt>
      <trkpt lat="51.036736" lon="4.972076">
        <ele>70.697</ele>
        <time>2020-09-13T14:00:10Z</time>
      </trkpt>
      <trkpt lat="51.036852" lon="4.972328">
        <ele>67.823</ele>
        <time>2020-09-13T14:21:54Z</time>
      </trkpt>
      <trkpt lat="51.036721" lon="4.972301">
        <ele>64.625</ele>
        <time>2020-09-13T14:24:57Z</time>
      </trkpt>
      <trkpt lat="51.036921" lon="4.971874">
        <ele>72.408</ele>
        <time>2020-09-13T14:26:52Z</time>
      </trkpt>
      <trkpt lat="51.036854" lon="4.972313">
        <ele>72.494</ele>
        <time>2020-09-13T14:28:16Z</time>
      </trkpt>
      <trkpt lat="51.036997" lon="4.972364">
        <ele>66.995</ele>
        <time>2020-09-13T14:32:50Z</time>
      </trkpt>
      <trkpt lat="51.037053" lon="4.972229">
        <ele>67.446</ele>
        <time>2020-09-13T14:33:03Z</time>
      </trkpt>
      <trkpt lat="51.036742" lon="4.971408">
        <ele>68.441</ele>
        <time>2020-09-13T14:34:10Z</time>
      </trkpt>
      <trkpt lat="51.036201" lon="4.968923">
        <ele>65.629</ele>
        <time>2020-09-13T14:36:59Z</time>
      </trkpt>
      <trkpt lat="51.033671" lon="4.970630">
        <ele>70.214</ele>
        <time>2020-09-13T14:38:26Z</time>
      </trkpt>
      <trkpt lat="51.032962" lon="4.970927">
        <ele>71.713</ele>
        <time>2020-09-13T14:39:29Z</time>
      </trkpt>
      <trkpt lat="51.032929" lon="4.970602">
        <ele>69.427</ele>
        <time>2020-09-13T14:41:14Z</time>
      </trkpt>
      <trkpt lat="51.032836" lon="4.971127">
        <ele>70.182</ele>
        <time>2020-09-13T14:42:21Z</time>
      </trkpt>
      <trkpt lat="51.032180" lon="4.972211">
        <ele>77.043</ele>
        <time>2020-09-13T14:43:48Z</time>
      </trkpt>
      <trkpt lat="51.031975" lon="4.972202">
        <ele>74.317</ele>
        <time>2020-09-13T14:44:04Z</time>
      </trkpt>
      <trkpt lat="51.031360" lon="4.970967">
        <ele>72.608</ele>
        <time>2020-09-13T14:45:25Z</time>
      </trkpt>
      <trkpt lat="51.030456" lon="4.966988">
        <ele>75.933</ele>
        <time>2020-09-13T14:47:38Z</time>
      </trkpt>
      <trkpt lat="51.030866" lon="4.967795">
        <ele>71.414</ele>
        <time>2020-09-13T14:49:28Z</time>
      </trkpt>
      <trkpt lat="51.032629" lon="4.975153">
        <ele>63.775</ele>
        <time>2020-09-13T14:56:11Z</time>
      </trkpt>
      <trkpt lat="51.032168" lon="4.979580">
        <ele>84.180</ele>
        <time>2020-09-13T15:00:29Z</time>
      </trkpt>
      <trkpt lat="51.032284" lon="4.980248">
        <ele>83.988</ele>
        <time>2020-09-13T15:01:42Z</time>
      </trkpt>
      <trkpt lat="51.030221" lon="4.982895">
        <ele>80.683</ele>
        <time>2020-09-13T15:07:12Z</time>
      </trkpt>
      <trkpt lat="51.030357" lon="4.983164">
        <ele>80.342</ele>
        <time>2020-09-13T15:07:42Z</time>
      </trkpt>
      <trkpt lat="51.030243" lon="4.983639">
        <ele>78.386</ele>
        <time>2020-09-13T15:08:15Z</time>
      </trkpt>
      <trkpt lat="51.029891" lon="4.983956">
        <ele>79.862</ele>
        <time>2020-09-13T15:08:53Z</time>
      </trkpt>
      <trkpt lat="51.029456" lon="4.983976">
        <ele>79.883</ele>
        <time>2020-09-13T15:09:49Z</time>
      </trkpt>
      <trkpt lat="51.029433" lon="4.984126">
        <ele>79.511</ele>
        <time>2020-09-13T15:10:22Z</time>
      </trkpt>
      <trkpt lat="51.029761" lon="4.985239">
        <ele>70.508</ele>
        <time>2020-09-13T15:11:28Z</time>
      </trkpt>
      <trkpt lat="51.030278" lon="4.985225">
        <ele>65.711</ele>
        <time>2020-09-13T15:12:28Z</time>
      </trkpt>
      <trkpt lat="51.030742" lon="4.984470">
        <ele>61.742</ele>
        <time>2020-09-13T15:13:26Z</time>
      </trkpt>
      <trkpt lat="51.030934" lon="4.984634">
        <ele>61.553</ele>
        <time>2020-09-13T15:13:46Z</time>
      </trkpt>
      <trkpt lat="51.034079" lon="4.997286">
        <ele>65.728</ele>
        <time>2020-09-13T15:25:50Z</time>
      </trkpt>
      <trkpt lat="51.034537" lon="4.999861">
        <ele>57.086</ele>
        <time>2020-09-13T15:27:25Z</time>
      </trkpt>
      <trkpt lat="51.035288" lon="5.002476">
        <ele>70.731</ele>
        <time>2020-09-13T15:29:54Z</time>
      </trkpt>
      <trkpt lat="51.036081" lon="5.003894">
        <ele>69.140</ele>
        <time>2020-09-13T15:32:02Z</time>
      </trkpt>
      <trkpt lat="51.036519" lon="5.004248">
        <ele>68.394</ele>
        <time>2020-09-13T15:32:40Z</time>
      </trkpt>
      <trkpt lat="51.036987" lon="5.005253">
        <ele>75.165</ele>
        <time>2020-09-13T15:33:39Z</time>
      </trkpt>
      <trkpt lat="51.037429" lon="5.005568">
        <ele>72.768</ele>
        <time>2020-09-13T15:34:13Z</time>
      </trkpt>
      <trkpt lat="51.037687" lon="5.006285">
        <ele>68.414</ele>
        <time>2020-09-13T15:34:50Z</time>
      </trkpt>
      <trkpt lat="51.038051" lon="5.006513">
        <ele>69.208</ele>
        <time>2020-09-13T15:35:17Z</time>
      </trkpt>
      <trkpt lat="51.038261" lon="5.007053">
        <ele>69.691</ele>
        <time>2020-09-13T15:35:51Z</time>
      </trkpt>
      <trkpt lat="51.038655" lon="5.007394">
        <ele>70.242</ele>
        <time>2020-09-13T15:36:28Z</time>
      </trkpt>
      <trkpt lat="51.038785" lon="5.007853">
        <ele>69.343</ele>
        <time>2020-09-13T15:36:51Z</time>
      </trkpt>
      <trkpt lat="51.039491" lon="5.008516">
        <ele>69.188</ele>
        <time>2020-09-13T15:37:46Z</time>
      </trkpt>
      <trkpt lat="51.039694" lon="5.009178">
        <ele>69.136</ele>
        <time>2020-09-13T15:41:22Z</time>
      </trkpt>
      <trkpt lat="51.039685" lon="5.009045">
        <ele>69.151</ele>
        <time>2020-09-13T15:42:03Z</time>
      </trkpt>
      <trkpt lat="51.039776" lon="5.009138">
        <ele>69.120</ele>
        <time>2020-09-13T15:42:34Z</time>
      </trkpt>
      <trkpt lat="51.039653" lon="5.009574">
        <ele>69.174</ele>
        <time>2020-09-13T15:42:56Z</time>
      </trkpt>
      <trkpt lat="51.038548" lon="5.010237">
        <ele>69.073</ele>
        <time>2020-09-13T15:44:42Z</time>
      </trkpt>
      <trkpt lat="51.038044" lon="5.010250">
        <ele>69.085</ele>
        <time>2020-09-13T15:45:23Z</time>
      </trkpt>
      <trkpt lat="51.037968" lon="5.010414">
        <ele>69.013</ele>
        <time>2020-09-13T15:45:36Z</time>
      </trkpt>
      <trkpt lat="51.038606" lon="5.010814">
        <ele>69.008</ele>
        <time>2020-09-13T15:46:52Z</time>
      </trkpt>
      <trkpt lat="51.039170" lon="5.012306">
        <ele>69.522</ele>
        <time>2020-09-13T15:50:32Z</time>
      </trkpt>
      <trkpt lat="51.039282" lon="5.013245">
        <ele>61.633</ele>
        <time>2020-09-13T15:51:20Z</time>
      </trkpt>
      <trkpt lat="51.039654" lon="5.013633">
        <ele>60.544</ele>
        <time>2020-09-13T15:51:50Z</time>
      </trkpt>
      <trkpt lat="51.039855" lon="5.014448">
        <ele>59.899</ele>
        <time>2020-09-13T15:52:33Z</time>
      </trkpt>
      <trkpt lat="51.040048" lon="5.014693">
        <ele>59.697</ele>
        <time>2020-09-13T15:52:46Z</time>
      </trkpt>
      <trkpt lat="51.040436" lon="5.017347">
        <ele>67.552</ele>
        <time>2020-09-13T15:54:59Z</time>
      </trkpt>
      <trkpt lat="51.040323" lon="5.017804">
        <ele>66.421</ele>
        <time>2020-09-13T15:55:26Z</time>
      </trkpt>
      <trkpt lat="51.039577" lon="5.018190">
        <ele>70.835</ele>
        <time>2020-09-13T15:56:39Z</time>
      </trkpt>
      <trkpt lat="51.038334" lon="5.018329">
        <ele>71.514</ele>
        <time>2020-09-13T15:58:02Z</time>
      </trkpt>
      <trkpt lat="51.037829" lon="5.018163">
        <ele>74.054</ele>
        <time>2020-09-13T15:58:27Z</time>
      </trkpt>
      <trkpt lat="51.036197" lon="5.018600">
        <ele>39.009</ele>
        <time>2020-09-13T16:00:53Z</time>
      </trkpt>
      <trkpt lat="51.035200" lon="5.018580">
        <ele>39.008</ele>
        <time>2020-09-13T16:02:07Z</time>
      </trkpt>
      <trkpt lat="51.034520" lon="5.019216">
        <ele>47.036</ele>
        <time>2020-09-13T16:03:34Z</time>
      </trkpt>
      <trkpt lat="51.034170" lon="5.019150">
        <ele>74.927</ele>
        <time>2020-09-13T16:03:58Z</time>
      </trkpt>
      <trkpt lat="51.033830" lon="5.019466">
        <ele>82.938</ele>
        <time>2020-09-13T16:04:30Z</time>
      </trkpt>
      <trkpt lat="51.033034" lon="5.019713">
        <ele>93.053</ele>
        <time>2020-09-13T16:05:44Z</time>
      </trkpt>
      <trkpt lat="51.032816" lon="5.019582">
        <ele>91.871</ele>
        <time>2020-09-13T16:06:07Z</time>
      </trkpt>
      <trkpt lat="51.032518" lon="5.019665">
        <ele>91.356</ele>
        <time>2020-09-13T16:06:17Z</time>
      </trkpt>
      <trkpt lat="51.031963" lon="5.019988">
        <ele>90.465</ele>
        <time>2020-09-13T16:07:05Z</time>
      </trkpt>
      <trkpt lat="51.031746" lon="5.019860">
        <ele>90.349</ele>
        <time>2020-09-13T16:07:30Z</time>
      </trkpt>
      <trkpt lat="51.031078" lon="5.020114">
        <ele>88.428</ele>
        <time>2020-09-13T16:08:12Z</time>
      </trkpt>
      <trkpt lat="51.030056" lon="5.019907">
        <ele>83.989</ele>
        <time>2020-09-13T16:09:49Z</time>
      </trkpt>
      <trkpt lat="51.030111" lon="5.020804">
        <ele>75.417</ele>
        <time>2020-09-13T16:11:25Z</time>
      </trkpt>
      <trkpt lat="51.030812" lon="5.020624">
        <ele>77.508</ele>
        <time>2020-09-13T16:12:39Z</time>
      </trkpt>
      <trkpt lat="51.031010" lon="5.020915">
        <ele>72.587</ele>
        <time>2020-09-13T16:12:54Z</time>
      </trkpt>
      <trkpt lat="51.031075" lon="5.021532">
        <ele>78.598</ele>
        <time>2020-09-13T16:13:29Z</time>
      </trkpt>
      <trkpt lat="51.031304" lon="5.021946">
        <ele>83.169</ele>
        <time>2020-09-13T16:14:01Z</time>
      </trkpt>
      <trkpt lat="51.031288" lon="5.022509">
        <ele>83.644</ele>
        <time>2020-09-13T16:14:28Z</time>
      </trkpt>
      <trkpt lat="51.031748" lon="5.023618">
        <ele>89.722</ele>
        <time>2020-09-13T16:15:51Z</time>
      </trkpt>
      <trkpt lat="51.032078" lon="5.023885">
        <ele>89.817</ele>
        <time>2020-09-13T16:16:10Z</time>
      </trkpt>
      <trkpt lat="51.032426" lon="5.024495">
        <ele>92.766</ele>
        <time>2020-09-13T16:17:03Z</time>
      </trkpt>
      <trkpt lat="51.032585" lon="5.025295">
        <ele>87.360</ele>
        <time>2020-09-13T16:18:53Z</time>
      </trkpt>
      <trkpt lat="51.032107" lon="5.024289">
        <ele>89.798</ele>
        <time>2020-09-13T16:21:47Z</time>
      </trkpt>
      <trkpt lat="51.031139" lon="5.022870">
        <ele>93.915</ele>
        <time>2020-09-13T16:23:28Z</time>
      </trkpt>
      <trkpt lat="51.030877" lon="5.020871">
        <ele>84.826</ele>
        <time>2020-09-13T16:25:13Z</time>
      </trkpt>
      <trkpt lat="51.030755" lon="5.020846">
        <ele>84.008</ele>
        <time>2020-09-13T16:25:29Z</time>
      </trkpt>
      <trkpt lat="51.030622" lon="5.021226">
        <ele>82.474</ele>
        <time>2020-09-13T16:26:08Z</time>
      </trkpt>
      <trkpt lat="51.030109" lon="5.021145">
        <ele>83.285</ele>
        <time>2020-09-13T16:26:44Z</time>
      </trkpt>
      <trkpt lat="51.029863" lon="5.020797">
        <ele>81.396</ele>
        <time>2020-09-13T16:27:02Z</time>
      </trkpt>
      <trkpt lat="51.029893" lon="5.019796">
        <ele>75.711</ele>
        <time>2020-09-13T16:27:57Z</time>
      </trkpt>
      <trkpt lat="51.029454" lon="5.019897">
        <ele>72.479</ele>
        <time>2020-09-13T16:28:49Z</time>
      </trkpt>
      <trkpt lat="51.029097" lon="5.023424">
        <ele>71.564</ele>
        <time>2020-09-13T16:31:33Z</time>
      </trkpt>
      <trkpt lat="51.029344" lon="5.024840">
        <ele>69.533</ele>
        <time>2020-09-13T16:32:35Z</time>
      </trkpt>
      <trkpt lat="51.029857" lon="5.026105">
        <ele>67.617</ele>
        <time>2020-09-13T16:33:46Z</time>
      </trkpt>
      <trkpt lat="51.029859" lon="5.026947">
        <ele>78.739</ele>
        <time>2020-09-13T16:34:19Z</time>
      </trkpt>
      <trkpt lat="51.029460" lon="5.027691">
        <ele>63.101</ele>
        <time>2020-09-13T16:35:23Z</time>
      </trkpt>
      <trkpt lat="51.029604" lon="5.029440">
        <ele>68.221</ele>
        <time>2020-09-13T16:37:05Z</time>
      </trkpt>
      <trkpt lat="51.029840" lon="5.030099">
        <ele>66.508</ele>
        <time>2020-09-13T16:37:29Z</time>
      </trkpt>
      <trkpt lat="51.029762" lon="5.032837">
        <ele>60.318</ele>
        <time>2020-09-13T16:39:38Z</time>
      </trkpt>
      <trkpt lat="51.029905" lon="5.033270">
        <ele>61.019</ele>
        <time>2020-09-13T16:39:49Z</time>
      </trkpt>
      <trkpt lat="51.029927" lon="5.034271">
        <ele>64.510</ele>
        <time>2020-09-13T16:40:25Z</time>
      </trkpt>
      <trkpt lat="51.030685" lon="5.036945">
        <ele>69.975</ele>
        <time>2020-09-13T16:41:39Z</time>
      </trkpt>
      <trkpt lat="51.032242" lon="5.036699">
        <ele>76.263</ele>
        <time>2020-09-13T16:43:44Z</time>
      </trkpt>
      <trkpt lat="51.033318" lon="5.036345">
        <ele>74.918</ele>
        <time>2020-09-13T16:45:10Z</time>
      </trkpt>
      <trkpt lat="51.033607" lon="5.036074">
        <ele>76.887</ele>
        <time>2020-09-13T16:45:21Z</time>
      </trkpt>
      <trkpt lat="51.034070" lon="5.036133">
        <ele>80.021</ele>
        <time>2020-09-13T16:45:53Z</time>
      </trkpt>
      <trkpt lat="51.034277" lon="5.036361">
        <ele>83.532</ele>
        <time>2020-09-13T16:46:23Z</time>
      </trkpt>
      <trkpt lat="51.034346" lon="5.036255">
        <ele>83.192</ele>
        <time>2020-09-13T16:46:31Z</time>
      </trkpt>
      <trkpt lat="51.034175" lon="5.036093">
        <ele>81.411</ele>
        <time>2020-09-13T16:48:29Z</time>
      </trkpt>
      <trkpt lat="51.034233" lon="5.036191">
        <ele>82.308</ele>
        <time>2020-09-13T16:49:26Z</time>
      </trkpt>
    </trkseg>
  </trk></gpx>